Time;durP1;ratioP1;P1;durP2;ratioP2;P2;SDS_P1;SDS_P2;PMS_P1;PMS_P2;Temp;Humidity;BMP_temperature;BMP_pressure;BME280_temperature;BME280_humidity;BME280_pressure;Samples;Min_cycle;Max_cycle;Signal;HPM_P1;HPM_P2
2021/04/17 00:00:07;;;;;;;6.05;5.47;;;;;;;5.01;77.09;101058.04;1783108;80;21348;-72
2021/04/17 00:02:37;;;;;;;7.42;6.58;;;;;;;5.01;77.14;101054.98;1783093;79;20962;-71
2021/04/17 00:05:07;;;;;;;7.25;6.60;;;;;;;4.99;77.21;101055.48;1783266;80;21356;-72
2021/04/17 00:07:36;;;;;;;9.53;7.67;;;;;;;4.99;77.14;101055.02;1783259;79;21431;-71
2021/04/17 00:10:08;;;;;;;8.20;7.40;;;;;;;4.98;77.01;101052.03;1783276;80;21534;-71
2021/04/17 00:12:37;;;;;;;7.58;6.78;;;;;;;4.98;76.95;101053.34;1783176;80;21384;-72
2021/04/17 00:15:07;;;;;;;7.25;6.55;;;;;;;4.95;76.91;101057.30;1783187;80;21022;-72
2021/04/17 00:17:36;;;;;;;8.15;6.37;;;;;;;4.91;76.88;101057.44;1783174;80;21018;-72
2021/04/17 00:20:06;;;;;;;6.22;5.62;;;;;;;4.90;76.85;101058.36;1783174;79;21026;-71
2021/04/17 00:22:35;;;;;;;5.53;4.97;;;;;;;4.87;76.96;101056.70;1783350;80;22283;-72
2021/04/17 00:25:03;;;;;;;6.62;5.60;;;;;;;4.85;77.07;101057.19;1783097;79;21492;-71
2021/04/17 00:27:32;;;;;;;15.65;6.22;;;;;;;4.83;77.20;101055.53;1783214;80;21397;-72
2021/04/17 00:30:00;;;;;;;7.15;5.37;;;;;;;4.81;77.27;101059.47;1783097;80;20919;-72
2021/04/17 00:32:28;;;;;;;7.30;5.60;;;;;;;4.78;77.33;101055.67;1783154;80;20935;-72
2021/04/17 00:34:58;;;;;;;6.58;5.78;;;;;;;4.76;77.40;101066.55;1783216;79;21347;-72
2021/04/17 00:37:26;;;;;;;6.65;5.90;;;;;;;4.74;77.44;101060.55;1783156;80;21006;-72
2021/04/17 00:39:54;;;;;;;7.00;5.42;;;;;;;4.73;77.55;101061.42;1783203;80;21010;-72
2021/04/17 00:42:22;;;;;;;6.92;5.00;;;;;;;4.71;77.64;101064.52;1783142;80;20911;-72
2021/04/17 00:44:50;;;;;;;5.70;5.20;;;;;;;4.70;77.66;101071.47;1783246;80;21340;-72
2021/04/17 00:47:18;;;;;;;7.42;5.60;;;;;;;4.69;77.72;101067.59;1783227;79;21514;-72
2021/04/17 00:49:48;;;;;;;7.05;6.35;;;;;;;4.67;77.68;101068.09;1782464;80;21002;-71
2021/04/17 00:52:16;;;;;;;7.28;6.20;;;;;;;4.66;77.73;101072.89;1783161;79;20990;-73
2021/04/17 00:54:44;;;;;;;9.20;6.45;;;;;;;4.64;77.70;101078.13;1783132;80;21009;-72
2021/04/17 00:57:12;;;;;;;7.03;6.25;;;;;;;4.63;77.70;101082.93;1783217;79;20946;-73
2021/04/17 00:59:40;;;;;;;6.50;5.90;;;;;;;4.64;77.66;101074.68;1783255;80;22285;-73
2021/04/17 01:02:12;;;;;;;7.40;5.97;;;;;;;4.61;77.74;101073.48;1783123;80;20955;-75
2021/04/17 01:04:43;;;;;;;7.87;7.08;;;;;;;4.59;77.81;101072.22;1783213;80;21356;-75
2021/04/17 01:07:20;;;;;;;10.60;7.72;;;;;;;4.60;77.92;101075.20;1783056;78;20926;-73
2021/04/17 01:09:56;;;;;;;9.18;7.90;;;;;;;4.62;77.94;101073.87;1754198;80;20959;-73
2021/04/17 01:12:27;;;;;;;9.70;7.62;;;;;;;4.63;77.99;101075.59;1778634;79;22108;-73
2021/04/17 01:14:55;;;;;;;8.90;7.62;;;;;;;4.61;77.93;101073.48;1778432;80;20955;-72
2021/04/17 01:17:23;;;;;;;10.53;8.00;;;;;;;4.61;77.93;101070.88;1754918;80;21496;-75
2021/04/17 01:20:19;;;;;;;8.33;6.92;;;;;;;4.62;77.95;101082.96;1779860;80;20951;-72
2021/04/17 01:23:10;;;;;;;9.30;7.78;;;;;;;4.63;78.11;101080.33;1778674;80;20975;-71
2021/04/17 01:26:00;;;;;;;11.00;8.30;;;;;;;4.67;78.17;101085.84;1778848;80;21571;-72
2021/04/17 01:28:34;;;;;;;12.45;7.53;;;;;;;4.71;78.14;101086.17;1778708;79;20943;-73
2021/04/17 01:31:03;;;;;;;9.28;7.78;;;;;;;4.75;78.02;101090.36;1778784;80;20934;-72
2021/04/17 01:33:34;;;;;;;10.28;8.68;;;;;;;4.76;77.86;101086.05;1778396;80;21479;-72
2021/04/17 01:36:03;;;;;;;11.75;9.58;;;;;;;4.73;77.84;101088.70;1778541;80;21125;-72
2021/04/17 01:38:53;;;;;;;11.57;9.03;;;;;;;4.73;77.77;101084.81;1778567;80;22146;-73
2021/04/17 01:41:30;;;;;;;9.03;7.58;;;;;;;4.72;77.78;101089.61;1778438;80;21488;-72
2021/04/17 01:43:59;;;;;;;9.35;6.50;;;;;;;4.70;77.92;101087.05;1778452;80;20951;-73
2021/04/17 01:46:29;;;;;;;8.90;7.85;;;;;;;4.73;77.94;101089.55;1778409;80;21070;-73
2021/04/17 01:49:04;;;;;;;8.30;7.50;;;;;;;4.75;78.04;101091.66;1778474;80;21014;-73
2021/04/17 01:51:32;;;;;;;10.48;8.60;;;;;;;4.76;78.10;101098.58;1778563;80;21813;-73
2021/04/17 01:54:03;;;;;;;11.90;8.88;;;;;;;4.78;78.07;101091.59;1778380;80;20947;-72
2021/04/17 01:56:32;;;;;;;9.85;8.45;;;;;;;4.79;78.06;101092.44;1778404;79;20943;-73
2021/04/17 01:59:00;;;;;;;8.80;7.87;;;;;;;4.80;78.08;101091.52;1778469;80;20924;-72
2021/04/17 02:01:29;;;;;;;12.25;8.90;;;;;;;4.83;78.11;101096.66;1780041;80;21412;-73
2021/04/17 02:03:57;;;;;;;13.55;9.63;;;;;;;4.85;78.19;101092.27;1778456;80;21818;-72
2021/04/17 02:06:25;;;;;;;22.60;11.25;;;;;;;4.88;78.24;101096.52;1778421;80;21010;-72
2021/04/17 02:08:54;;;;;;;11.85;9.90;;;;;;;4.91;78.32;101089.92;1778349;80;20994;-73
2021/04/17 02:11:22;;;;;;;14.95;12.28;;;;;;;4.95;78.24;101093.69;1778368;80;20935;-73
2021/04/17 02:13:50;;;;;;;25.62;18.52;;;;;;;5.01;78.17;101098.33;1778834;79;21329;-70
2021/04/17 02:16:21;;;;;;;12.03;9.38;;;;;;;5.03;78.04;101099.98;1778559;80;22708;-73
2021/04/17 02:18:56;;;;;;;12.58;9.88;;;;;;;5.04;77.96;101100.37;1778579;80;20946;-73
2021/04/17 02:21:33;;;;;;;8.98;8.13;;;;;;;5.05;77.95;101099.48;1778600;80;21104;-74
2021/04/17 02:24:14;;;;;;;9.20;8.05;;;;;;;5.12;78.06;101099.70;1846094;76;22701;-73
2021/04/17 02:26:43;;;;;;;10.75;9.75;;;;;;;5.11;78.12;101104.94;1818400;77;21372;-74
2021/04/17 02:29:12;;;;;;;11.20;10.00;;;;;;;5.12;78.15;101102.30;1818391;77;21856;-73
2021/04/17 02:31:41;;;;;;;10.30;9.18;;;;;;;5.16;78.16;101104.37;1818132;79;21057;-72
2021/04/17 02:34:09;;;;;;;11.10;9.80;;;;;;;5.17;78.12;101112.56;1818212;79;20919;-71
2021/04/17 02:36:37;;;;;;;11.63;9.03;;;;;;;5.19;78.04;101110.77;1818366;79;20927;-72
2021/04/17 02:39:05;;;;;;;10.65;8.95;;;;;;;5.19;78.07;101109.47;1818635;79;20923;-72
2021/04/17 02:41:34;;;;;;;11.55;9.38;;;;;;;5.18;78.13;101117.73;1818713;78;21483;-70
2021/04/17 02:44:03;;;;;;;9.38;8.48;;;;;;;5.21;78.21;101118.53;1818599;78;20990;-70
2021/04/17 02:46:32;;;;;;;12.15;8.68;;;;;;;5.23;78.24;101121.49;1818541;78;20970;-70
2021/04/17 02:49:02;;;;;;;11.05;9.88;;;;;;;5.25;78.24;101118.40;1818464;79;21423;-71
2021/04/17 02:51:32;;;;;;;11.08;9.98;;;;;;;5.26;78.26;101116.64;1820238;79;21014;-72
2021/04/17 02:54:00;;;;;;;12.00;10.75;;;;;;;5.27;78.30;101117.91;1820915;77;21506;-71
2021/04/17 02:56:30;;;;;;;12.50;11.22;;;;;;;5.26;78.34;101127.05;1818244;79;21021;-71
2021/04/17 02:59:01;;;;;;;11.85;9.75;;;;;;;5.27;78.38;101131.33;1821863;77;21045;-72
2021/04/17 03:01:31;;;;;;;9.55;8.65;;;;;;;5.26;78.48;101123.98;1821859;78;21222;-71
2021/04/17 03:04:00;;;;;;;11.85;10.03;;;;;;;5.27;78.65;101132.63;1821830;79;21348;-71
2021/04/17 03:06:29;;;;;;;9.83;8.83;;;;;;;5.26;78.85;101125.74;1821167;77;21798;-73
2021/04/17 03:08:58;;;;;;;10.70;9.70;;;;;;;5.26;78.99;101125.74;1819807;79;20962;-70
2021/04/17 03:11:28;;;;;;;11.35;10.15;;;;;;;5.30;79.12;101135.16;1819096;79;20911;-71
2021/04/17 03:13:58;;;;;;;14.65;10.93;;;;;;;5.32;79.15;101134.67;1818019;79;20947;-73
2021/04/17 03:16:26;;;;;;;11.68;10.50;;;;;;;5.33;79.13;101137.66;1818059;79;20911;-73
2021/04/17 03:18:55;;;;;;;11.40;10.20;;;;;;;5.35;79.13;101139.77;1817977;79;22378;-73
2021/04/17 03:21:24;;;;;;;11.25;9.78;;;;;;;5.36;79.10;101138.43;1817990;79;21379;-73
2021/04/17 03:23:52;;;;;;;10.75;9.65;;;;;;;5.39;79.12;101140.92;1828722;78;20970;-73
2021/04/17 03:26:20;;;;;;;11.15;10.15;;;;;;;5.41;79.15;101139.59;1833073;78;20962;-72
2021/04/17 03:28:49;;;;;;;11.15;9.95;;;;;;;5.44;79.29;101142.54;1833166;77;20886;-72
2021/04/17 03:31:17;;;;;;;12.30;10.98;;;;;;;5.48;79.24;101149.36;1832978;78;22447;-73
2021/04/17 03:33:46;;;;;;;10.82;9.20;;;;;;;5.53;79.20;101152.66;1832780;78;20942;-72
2021/04/17 03:38:13;;;;;;;12.60;11.40;;;;;;;5.66;78.89;101155.75;1776905;79;22558;-72
2021/04/17 03:40:41;;;;;;;11.53;9.58;;;;;;;5.62;78.82;101156.28;1749631;80;20947;-70
2021/04/17 03:43:10;;;;;;;12.28;10.03;;;;;;;5.62;78.81;101164.09;1749670;82;21378;-73
2021/04/17 03:45:38;;;;;;;10.72;9.73;;;;;;;5.63;78.79;101162.36;1749608;82;20955;-71
2021/04/17 03:48:07;;;;;;;12.43;11.22;;;;;;;5.63;78.84;101164.50;1749634;82;21105;-70
2021/04/17 03:50:37;;;;;;;16.97;11.57;;;;;;;5.65;78.90;101165.73;1749614;82;21018;-72
2021/04/17 03:53:05;;;;;;;11.53;10.43;;;;;;;5.65;78.92;101164.01;1749653;82;20983;-71
2021/04/17 03:55:33;;;;;;;11.25;10.15;;;;;;;5.67;78.82;101167.84;1749646;82;21934;-72
2021/04/17 03:58:03;;;;;;;11.33;10.15;;;;;;;5.66;78.71;101170.06;1749530;80;20954;-73
2021/04/17 04:00:31;;;;;;;9.40;8.43;;;;;;;5.66;78.80;101170.06;1749617;82;20963;-73
2021/04/17 04:03:01;;;;;;;8.60;7.80;;;;;;;5.67;78.87;101171.32;1749603;82;20895;-72
2021/04/17 04:05:29;;;;;;;11.10;8.20;;;;;;;5.68;78.91;101174.31;1749577;82;20943;-72
2021/04/17 04:07:59;;;;;;;9.25;8.33;;;;;;;5.70;78.91;101166.47;1749584;82;21371;-72
2021/04/17 04:10:27;;;;;;;10.18;9.05;;;;;;;5.71;78.87;101169.45;1749584;80;20995;-73
2021/04/17 04:12:54;;;;;;;10.30;9.20;;;;;;;5.73;78.91;101178.07;1749604;81;21007;-73
2021/04/17 04:15:23;;;;;;;11.40;9.38;;;;;;;5.73;78.88;101172.41;1749584;82;20955;-71
2021/04/17 04:17:50;;;;;;;12.88;9.80;;;;;;;5.74;78.77;101174.12;1749629;82;20931;-72
2021/04/17 04:20:19;;;;;;;10.45;8.25;;;;;;;5.77;78.81;101175.33;1749616;82;21231;-73
2021/04/17 04:22:47;;;;;;;9.50;8.50;;;;;;;5.81;78.80;101180.84;1749564;82;21006;-73
2021/04/17 04:25:16;;;;;;;8.88;8.00;;;;;;;5.87;78.74;101182.84;1749579;80;21003;-72
2021/04/17 04:27:44;;;;;;;11.75;10.05;;;;;;;5.90;78.74;101187.97;1749549;82;20951;-72
2021/04/17 04:30:13;;;;;;;9.75;8.80;;;;;;;5.95;78.82;101190.00;1749618;82;20935;-72
2021/04/17 04:32:42;;;;;;;10.60;9.35;;;;;;;5.99;78.74;101190.31;1749559;80;21343;-72
2021/04/17 04:35:11;;;;;;;11.20;9.20;;;;;;;6.00;78.64;101182.46;1749532;81;20908;-73
2021/04/17 04:37:39;;;;;;;8.78;7.87;;;;;;;6.06;78.61;101190.97;1750025;81;20951;-73
2021/04/17 04:40:08;;;;;;;9.93;9.03;;;;;;;6.09;78.61;101188.25;1750357;82;21077;-74
2021/04/17 04:42:36;;;;;;;10.38;8.15;;;;;;;6.12;78.69;101186.41;1750396;82;21547;-73
2021/04/17 04:45:06;;;;;;;9.78;8.85;;;;;;;6.19;78.67;101194.42;1750335;82;21082;-73
2021/04/17 04:47:35;;;;;;;9.63;8.20;;;;;;;6.20;78.66;101193.53;1750313;82;21460;-73
2021/04/17 04:50:06;;;;;;;10.35;9.00;;;;;;;6.22;78.63;101195.64;1749826;82;21054;-72
2021/04/17 04:52:34;;;;;;;10.25;9.25;;;;;;;6.25;78.58;101199.89;1749801;82;21050;-75
2021/04/17 04:55:02;;;;;;;10.60;9.18;;;;;;;6.31;78.61;101192.31;1750059;80;20939;-74
2021/04/17 04:57:30;;;;;;;10.80;8.55;;;;;;;6.37;78.55;101197.33;1749792;82;22353;-73
2021/04/17 04:59:59;;;;;;;8.63;7.85;;;;;;;6.42;78.46;101199.31;1749797;82;20963;-74
2021/04/17 05:02:27;;;;;;;10.60;9.48;;;;;;;6.48;78.50;101206.09;1749895;82;21440;-74
2021/04/17 05:04:55;;;;;;;9.68;8.68;;;;;;;6.55;78.61;101208.88;1749799;82;20958;-75
2021/04/17 05:07:23;;;;;;;15.50;12.70;;;;;;;6.64;78.50;101201.59;1749836;82;20967;-72
2021/04/17 05:09:53;;;;;;;11.65;10.43;;;;;;;6.75;78.25;101201.23;1749846;82;21361;-72
2021/04/17 05:12:22;;;;;;;12.63;10.78;;;;;;;6.81;77.97;101210.14;1749715;82;21082;-73
2021/04/17 05:14:50;;;;;;;10.70;9.70;;;;;;;6.90;77.72;101213.34;1749981;82;21101;-73
2021/04/17 05:17:19;;;;;;;10.48;9.40;;;;;;;6.95;77.45;101211.42;1749854;82;20951;-74
2021/04/17 05:19:49;;;;;;;13.18;10.93;;;;;;;7.01;77.35;101214.66;1749787;82;20939;-73
2021/04/17 05:22:17;;;;;;;10.23;8.98;;;;;;;7.11;77.41;101203.89;1749867;82;21790;-74
2021/04/17 05:24:45;;;;;;;11.25;9.38;;;;;;;7.21;77.16;101202.66;1749748;82;20994;-73
2021/04/17 05:27:14;;;;;;;13.43;10.95;;;;;;;7.34;76.87;101212.20;1749851;82;21007;-72
2021/04/17 05:29:42;;;;;;;14.65;12.60;;;;;;;7.42;76.62;101210.98;1749785;81;20939;-73
2021/04/17 05:32:10;;;;;;;13.13;11.73;;;;;;;7.49;76.13;101216.82;1749941;82;20971;-72
2021/04/17 05:34:40;;;;;;;12.05;10.95;;;;;;;7.51;75.79;101212.86;1749821;82;21472;-73
2021/04/17 05:37:08;;;;;;;11.90;10.78;;;;;;;7.52;75.81;101211.50;1744961;80;20952;-72
2021/04/17 05:39:37;;;;;;;10.65;9.65;;;;;;;7.53;75.55;101208.44;1735789;82;21019;-73
2021/04/17 05:42:06;;;;;;;14.95;11.93;;;;;;;7.52;75.67;101212.81;1735735;81;21003;-73
2021/04/17 05:44:35;;;;;;;13.13;11.50;;;;;;;7.53;75.62;101207.97;1735830;81;21102;-72
2021/04/17 05:47:04;;;;;;;13.28;11.90;;;;;;;7.57;75.69;101215.25;1735786;82;21473;-73
2021/04/17 05:49:33;;;;;;;12.60;11.33;;;;;;;7.64;75.66;101220.16;1735779;82;21520;-72
2021/04/17 05:52:02;;;;;;;12.18;10.98;;;;;;;7.72;75.60;101217.27;1735795;82;20984;-75
2021/04/17 05:54:30;;;;;;;11.28;10.00;;;;;;;7.79;75.27;101216.12;1735759;82;20924;-74
2021/04/17 05:56:58;;;;;;;13.22;11.95;;;;;;;7.86;75.08;101220.65;1735735;81;20907;-75
2021/04/17 05:59:26;;;;;;;14.25;12.95;;;;;;;7.91;74.86;101215.24;1735746;82;21660;-74
2021/04/17 06:01:54;;;;;;;16.97;15.18;;;;;;;7.96;74.67;101219.81;1735776;81;21575;-76
2021/04/17 06:04:23;;;;;;;15.38;12.98;;;;;;;8.00;74.44;101220.94;1735789;82;21027;-74
2021/04/17 06:06:53;;;;;;;17.27;15.53;;;;;;;8.05;74.27;101226.02;1735860;82;20932;-73
2021/04/17 06:09:21;;;;;;;14.53;13.10;;;;;;;8.06;74.10;101236.38;1735768;82;20955;-75
2021/04/17 06:11:49;;;;;;;16.20;12.80;;;;;;;8.09;73.98;101228.88;1735733;82;21818;-74
2021/04/17 06:14:18;;;;;;;14.55;12.13;;;;;;;8.07;73.70;101234.17;1735747;82;21015;-73
2021/04/17 06:16:47;;;;;;;14.53;13.03;;;;;;;8.07;73.85;101234.61;1735777;81;21437;-73
2021/04/17 06:19:15;;;;;;;14.43;12.75;;;;;;;8.07;73.99;101234.17;1735749;81;20991;-74
2021/04/17 06:21:44;;;;;;;15.05;13.35;;;;;;;8.12;73.97;101236.60;1735739;82;21046;-74
2021/04/17 06:24:12;;;;;;;13.22;12.03;;;;;;;8.18;74.07;101240.28;1735777;82;21378;-73
2021/04/17 06:26:41;;;;;;;13.03;11.73;;;;;;;8.22;73.79;101244.45;1735775;81;21358;-74
2021/04/17 06:29:10;;;;;;;13.78;12.20;;;;;;;8.24;73.40;101243.09;1735721;82;20991;-74
2021/04/17 06:31:38;;;;;;;13.70;12.30;;;;;;;8.26;73.57;101247.34;1735751;82;20987;-73
2021/04/17 06:34:06;;;;;;;12.03;10.72;;;;;;;8.29;73.26;101251.59;1735766;82;20948;-73
2021/04/17 06:36:34;;;;;;;15.28;12.63;;;;;;;8.30;73.29;101243.70;1735756;82;21369;-75
2021/04/17 06:39:05;;;;;;;14.25;12.30;;;;;;;8.32;73.21;101255.41;1735666;81;20924;-73
2021/04/17 06:41:34;;;;;;;14.80;13.40;;;;;;;8.36;73.22;101249.14;1735730;81;21050;-73
2021/04/17 06:44:05;;;;;;;13.50;12.15;;;;;;;8.43;73.31;101254.54;1735697;82;21377;-73
2021/04/17 06:46:35;;;;;;;14.18;12.70;;;;;;;8.52;73.07;101253.78;1735792;82;21616;-74
2021/04/17 06:49:05;;;;;;;15.98;14.28;;;;;;;8.57;72.76;101255.73;1715535;82;22335;-73
2021/04/17 06:51:37;;;;;;;15.43;12.68;;;;;;;8.61;72.48;101262.08;1735843;82;21496;-74
2021/04/17 06:54:06;;;;;;;13.80;12.50;;;;;;;8.65;72.22;101266.73;1735765;82;21563;-74
2021/04/17 06:56:35;;;;;;;14.80;13.40;;;;;;;8.64;72.14;101261.94;1735746;82;20999;-75
2021/04/17 06:59:03;;;;;;;14.95;13.45;;;;;;;8.66;72.15;101268.42;1735728;82;20944;-74
2021/04/17 07:01:32;;;;;;;14.50;13.10;;;;;;;8.68;72.07;101270.52;1735752;81;21350;-75
2021/04/17 07:04:00;;;;;;;18.50;14.05;;;;;;;8.71;72.25;101270.38;1735672;82;20956;-75
2021/04/17 07:06:27;;;;;;;16.93;15.13;;;;;;;8.77;72.05;101270.59;1735676;81;20916;-75
2021/04/17 07:08:55;;;;;;;14.45;13.05;;;;;;;8.76;72.08;101276.72;1735743;82;21445;-74
2021/04/17 07:11:24;;;;;;;17.00;13.40;;;;;;;8.76;72.02;101272.80;1735820;81;21011;-85
2021/04/17 07:14:14;;;;;;;16.57;13.62;;;;;;;8.76;71.77;101278.91;1736197;81;21362;-80
2021/04/17 07:17:01;;;;;;;13.43;12.13;;;;;;;8.75;71.60;101273.73;1736150;82;20912;-82
2021/04/17 07:19:56;;;;;;;14.68;13.18;;;;;;;8.72;71.78;101277.33;1736384;82;20952;-81
2021/04/17 07:22:35;;;;;;;16.37;14.78;;;;;;;8.74;71.90;101280.73;1737114;82;21023;-81
2021/04/17 07:25:10;;;;;;;16.30;14.47;;;;;;;8.79;71.90;101291.00;1736576;82;21413;-83
2021/04/17 07:27:47;;;;;;;15.72;14.13;;;;;;;8.81;71.72;101295.24;1737359;82;21421;-83
2021/04/17 07:30:23;;;;;;;15.80;14.18;;;;;;;8.80;71.35;101289.60;1736476;82;21011;-81
2021/04/17 07:33:14;;;;;;;19.73;16.17;;;;;;;8.78;71.04;101291.89;1736146;82;20968;-81
2021/04/17 07:35:46;;;;;;;15.95;14.33;;;;;;;8.76;71.11;101295.91;1735946;81;20939;-81
2021/04/17 07:38:24;;;;;;;15.58;13.98;;;;;;;8.78;71.42;101294.51;1735873;82;21157;-79
2021/04/17 07:41:13;;;;;;;16.73;15.10;;;;;;;8.79;71.31;101291.00;1735851;81;21370;-82
2021/04/17 07:44:00;;;;;;;14.68;13.22;;;;;;;8.85;71.36;101297.28;1736170;82;21386;-82
2021/04/17 07:46:41;;;;;;;14.83;13.35;;;;;;;8.95;71.13;101292.50;1736541;82;20960;-83
2021/04/17 07:49:15;;;;;;;15.28;13.70;;;;;;;9.03;70.84;101291.73;1736265;82;20940;-84
2021/04/17 07:52:09;;;;;;;15.88;14.30;;;;;;;9.05;70.72;101294.67;1737009;82;20955;-85
2021/04/17 07:54:54;;;;;;;14.43;12.98;;;;;;;9.08;70.75;101303.69;1735770;82;21370;-83
2021/04/17 07:57:22;;;;;;;14.15;12.85;;;;;;;9.11;70.59;101295.72;1726100;82;20932;-83
2021/04/17 07:59:52;;;;;;;14.20;12.90;;;;;;;9.15;70.76;101303.43;1665841;82;20971;-83
2021/04/17 08:02:20;;;;;;;14.23;12.80;;;;;;;9.21;70.76;101309.72;1735829;81;20940;-83
2021/04/17 08:04:48;;;;;;;14.40;13.22;;;;;;;9.24;70.36;101298.63;1735521;82;20991;-82
2021/04/17 08:07:19;;;;;;;16.25;14.75;;;;;;;9.27;70.08;101296.34;1735071;82;21764;-81
2021/04/17 08:09:47;;;;;;;16.95;15.35;;;;;;;9.30;69.93;101306.23;1735192;81;21035;-81
2021/04/17 08:12:17;;;;;;;16.90;15.32;;;;;;;9.32;69.79;101303.09;1735423;82;21148;-83
2021/04/17 08:14:45;;;;;;;18.90;17.12;;;;;;;9.35;69.73;101299.48;1735684;81;21560;-82
2021/04/17 08:17:13;;;;;;;26.85;23.95;;;;;;;9.37;69.71;101305.50;1714720;82;20944;-81
2021/04/17 08:19:42;;;;;;;18.50;16.67;;;;;;;9.40;70.04;101302.73;1692391;82;21373;-88
2021/04/17 08:22:11;;;;;;;14.40;12.88;;;;;;;9.46;69.69;101297.23;1736031;82;20916;-84
2021/04/17 08:24:39;;;;;;;13.30;12.07;;;;;;;9.53;69.24;101301.73;1735759;81;20948;-84
2021/04/17 08:27:08;;;;;;;14.35;12.95;;;;;;;9.62;69.12;101293.93;1735847;82;20959;-84
2021/04/17 08:29:51;;;;;;;12.60;11.48;;;;;;;9.72;68.48;101292.61;1735916;81;20968;-86
2021/04/17 08:32:30;;;;;;;14.63;12.05;;;;;;;9.82;67.71;101294.34;1736197;81;22155;-84
2021/04/17 08:35:18;;;;;;;12.05;10.95;;;;;;;9.94;67.42;101289.85;1735748;81;21497;-83
2021/04/17 08:37:56;;;;;;;13.78;10.38;;;;;;;10.07;66.95;101277.87;1735782;82;21046;-83
2021/04/17 08:40:40;;;;;;;12.28;11.08;;;;;;;10.29;66.69;101288.22;1736309;82;21444;-82
2021/04/17 08:43:17;;;;;;;12.28;11.15;;;;;;;10.53;65.81;101283.53;1735806;81;21097;-84
2021/04/17 08:46:14;;;;;;;12.53;11.33;;;;;;;10.74;65.34;101284.26;1735868;82;22193;-83
2021/04/17 08:48:52;;;;;;;12.80;11.55;;;;;;;10.89;64.41;101288.34;1736391;81;21484;-82
2021/04/17 08:51:29;;;;;;;9.90;9.05;;;;;;;10.99;63.93;101288.27;1736098;82;20904;-82
2021/04/17 08:54:09;;;;;;;10.03;9.13;;;;;;;11.05;62.94;101283.15;1736234;82;20917;-84
2021/04/17 08:56:55;;;;;;;11.85;10.75;;;;;;;11.09;62.50;101272.88;1736254;82;21027;-85
2021/04/17 08:59:33;;;;;;;14.03;11.70;;;;;;;11.13;62.16;101277.89;1739013;82;21445;-80
2021/04/17 09:02:14;;;;;;;12.18;11.08;;;;;;;11.15;62.33;101283.07;1738827;81;21024;-84
2021/04/17 09:05:07;;;;;;;10.58;9.68;;;;;;;11.16;62.36;101279.06;1736257;82;21019;-83
2021/04/17 09:07:38;;;;;;;11.10;10.08;;;;;;;11.18;62.26;101278.52;1736074;82;21015;-81
2021/04/17 09:10:32;;;;;;;10.88;9.75;;;;;;;11.16;62.11;101276.88;1735870;81;21016;-82
2021/04/17 09:13:16;;;;;;;11.18;9.45;;;;;;;11.14;61.88;101274.36;1735686;82;22086;-85
2021/04/17 09:15:59;;;;;;;9.98;9.00;;;;;;;11.13;61.79;101275.27;1735200;81;21062;-85
2021/04/17 09:18:37;;;;;;;9.68;8.78;;;;;;;11.16;61.31;101274.25;1735461;82;21050;-83
2021/04/17 09:21:15;;;;;;;8.80;8.00;;;;;;;11.19;60.81;101275.42;1735666;81;20979;-82
2021/04/17 09:23:46;;;;;;;10.45;8.90;;;;;;;11.23;60.64;101280.03;1735704;82;20964;-84
2021/04/17 09:26:37;;;;;;;8.90;8.13;;;;;;;11.29;60.68;101275.78;1735858;82;21422;-83
2021/04/17 09:29:19;;;;;;;8.63;7.92;;;;;;;11.45;60.53;101271.44;1735737;81;21075;-81
2021/04/17 09:31:50;;;;;;;8.33;7.62;;;;;;;11.62;60.06;101266.10;1735777;82;20964;-80
2021/04/17 09:34:20;;;;;;;9.48;8.68;;;;;;;11.84;59.66;101261.00;1735724;82;20952;-80
2021/04/17 09:36:50;;;;;;;9.88;8.98;;;;;;;12.03;59.58;101266.98;1735854;82;21363;-82
2021/04/17 09:39:28;;;;;;;8.55;7.35;;;;;;;12.17;58.59;101256.16;1735817;81;22284;-82
2021/04/17 09:41:59;;;;;;;9.93;9.08;;;;;;;12.27;57.71;101254.67;1735835;82;20992;-83
2021/04/17 09:44:43;;;;;;;9.15;8.25;;;;;;;12.66;57.53;101254.64;1735807;82;21027;-81
2021/04/17 09:47:14;;;;;;;8.40;7.60;;;;;;;12.90;57.94;101263.36;1718007;82;20939;-81
2021/04/17 09:49:46;;;;;;;7.90;7.20;;;;;;;13.24;56.04;101264.32;1735849;82;20956;-81
2021/04/17 09:52:19;;;;;;;8.98;7.00;;;;;;;13.41;55.40;101258.54;1735835;82;21136;-81
2021/04/17 09:54:48;;;;;;;6.92;6.35;;;;;;;13.49;54.78;101253.63;1735815;81;21027;-81
2021/04/17 09:57:15;;;;;;;7.60;6.90;;;;;;;13.54;54.77;101259.47;1735816;81;21007;-71
2021/04/17 09:59:58;;;;;;;9.30;6.62;;;;;;;13.57;54.94;101255.31;1735720;82;20995;-72
2021/04/17 10:05:36;;;;;;;7.30;6.60;;;;;;;13.62;54.36;101249.76;1660360;86;21447;-74
2021/04/17 10:08:05;;;;;;;6.40;5.90;;;;;;;13.58;53.74;101255.68;1711401;83;21036;-74
2021/04/17 10:10:37;;;;;;;6.10;5.65;;;;;;;13.52;53.83;101252.13;1711447;83;20949;-75
2021/04/17 10:13:06;;;;;;;5.22;4.72;;;;;;;13.47;53.44;101254.19;1711450;83;20957;-76
2021/04/17 10:15:35;;;;;;;5.80;5.30;;;;;;;13.40;53.55;101254.20;1711569;83;21591;-75
2021/04/17 10:18:09;;;;;;;10.00;5.60;;;;;;;13.33;53.45;101256.84;1711422;83;21197;-73
2021/04/17 10:20:34;;;;;;;7.25;6.55;;;;;;;13.27;53.91;101247.48;1711297;83;21501;-72
2021/04/17 10:23:03;;;;;;;8.40;6.75;;;;;;;13.22;53.80;101254.82;1711462;83;21007;-73
2021/04/17 10:25:42;;;;;;;5.42;5.03;;;;;;;13.29;54.86;101253.53;1711381;83;20930;-72
2021/04/17 10:28:16;;;;;;;5.72;5.25;;;;;;;13.35;54.27;101245.26;1710890;83;20941;-72
2021/04/17 10:30:48;;;;;;;5.35;4.85;;;;;;;13.46;53.46;101244.13;1711423;83;21373;-73
2021/04/17 10:33:21;;;;;;;5.75;5.12;;;;;;;13.58;53.06;101246.94;1711386;83;20960;-75
2021/04/17 10:35:50;;;;;;;5.87;5.40;;;;;;;13.63;52.89;101246.20;1711427;83;20929;-73
2021/04/17 10:38:34;;;;;;;5.33;4.92;;;;;;;13.87;52.50;101245.09;1711399;83;20953;-74
2021/04/17 10:41:03;;;;;;;5.25;4.65;;;;;;;14.26;51.70;101242.99;1711614;83;20946;-74
2021/04/17 10:43:31;;;;;;;4.58;4.15;;;;;;;14.49;50.03;101244.10;1711389;83;21347;-74
2021/04/17 10:46:04;;;;;;;5.72;4.15;;;;;;;14.57;49.04;101244.96;1711360;83;20957;-73
2021/04/17 10:48:46;;;;;;;4.53;4.12;;;;;;;14.81;49.72;101246.91;1711390;83;20917;-78
2021/04/17 10:51:16;;;;;;;3.90;3.55;;;;;;;14.95;48.13;101245.48;1711369;83;21541;-77
2021/04/17 10:53:47;;;;;;;4.75;4.35;;;;;;;15.04;46.60;101240.05;1711440;83;21024;-77
2021/04/17 10:56:19;;;;;;;5.28;4.62;;;;;;;14.91;47.33;101243.52;1711546;83;22273;-77
2021/04/17 10:58:56;;;;;;;5.42;4.60;;;;;;;14.91;47.33;101243.52;1711488;83;20981;-77
2021/04/17 11:01:26;;;;;;;6.95;5.95;;;;;;;14.79;47.55;101250.97;1711903;83;21051;-76
2021/04/17 11:04:00;;;;;;;7.78;6.87;;;;;;;14.68;48.55;101249.05;1709425;82;21037;-77
2021/04/17 11:06:36;;;;;;;8.53;7.83;;;;;;;14.77;47.93;101250.70;1699853;84;21030;-75
2021/04/17 11:09:11;;;;;;;6.33;5.50;;;;;;;14.82;48.89;101251.23;1699499;83;21412;-75
2021/04/17 11:11:57;;;;;;;5.75;5.25;;;;;;;14.98;48.75;101243.94;1699401;83;21352;-75
2021/04/17 11:14:26;;;;;;;4.67;4.28;;;;;;;15.13;48.94;101247.33;1699372;83;20986;-77
2021/04/17 11:16:56;;;;;;;4.17;3.87;;;;;;;15.25;47.86;101250.46;1699418;83;21471;-74
2021/04/17 11:19:37;;;;;;;5.47;3.47;;;;;;;15.30;47.34;101244.85;1699535;84;21482;-73
2021/04/17 11:22:24;;;;;;;4.40;3.67;;;;;;;15.28;46.96;101250.23;1699430;84;21372;-77
2021/04/17 11:25:06;;;;;;;3.30;3.02;;;;;;;15.12;47.21;101278.20;1699522;84;20969;-76
2021/04/17 11:27:35;;;;;;;3.90;3.20;;;;;;;14.91;46.24;101242.67;1699247;84;21180;-80
2021/04/17 11:30:18;;;;;;;3.20;2.55;;;;;;;14.76;47.25;101251.63;1699397;84;20967;-73
2021/04/17 11:32:50;;;;;;;2.02;1.92;;;;;;;14.64;47.10;101256.80;1699297;84;20940;-73
2021/04/17 11:35:19;;;;;;;3.58;2.55;;;;;;;14.58;46.30;101253.23;1699262;84;21783;-74
2021/04/17 11:37:47;;;;;;;4.65;2.77;;;;;;;14.54;46.82;101249.55;1699185;84;21002;-73
2021/04/17 11:40:16;;;;;;;2.80;2.27;;;;;;;14.47;46.43;101254.39;1699189;84;21050;-72
2021/04/17 11:42:44;;;;;;;5.85;2.27;;;;;;;14.38;46.58;101251.05;1699167;84;21056;-73
2021/04/17 11:45:15;;;;;;;2.35;2.17;;;;;;;14.35;47.62;101252.58;1699232;84;21419;-72
2021/04/17 11:47:43;;;;;;;3.22;2.30;;;;;;;14.35;47.66;101253.90;1699209;84;21437;-72
2021/04/17 11:50:12;;;;;;;2.20;2.00;;;;;;;14.33;47.19;101261.91;1698990;84;21543;-73